Time;durP1;ratioP1;P1;durP2;ratioP2;P2;SDS_P1;SDS_P2;PMS_P1;PMS_P2;Temp;Humidity;BMP_temperature;BMP_pressure;BME280_temperature;BME280_humidity;BME280_pressure;Samples;Min_cycle;Max_cycle;Signal;HPM_P1;HPM_P2
2021/05/30 00:02:12;;;;;;;5.00;3.50;;;;;;;14.89;81.01;100084.04;1708766;82;21818;-71
2021/05/30 00:04:40;;;;;;;5.50;3.50;;;;;;;14.87;80.81;100086.77;1709287;82;21816;-71
2021/05/30 00:07:07;;;;;;;3.90;3.17;;;;;;;14.85;80.65;100088.42;1632258;87;21729;-71
2021/05/30 00:09:38;;;;;;;4.77;2.80;;;;;;;14.83;80.40;100088.47;1635109;85;22156;-72
2021/05/30 00:12:08;;;;;;;5.33;3.00;;;;;;;14.80;80.09;100090.40;1644875;85;22339;-72
2021/05/30 00:14:37;;;;;;;;;;;;;;;14.76;79.67;100087.51;1651267;85;21784;-71
2021/05/30 00:17:05;;;;;;;5.73;2.90;;;;;;;14.72;79.56;100087.30;1640630;85;20311;-73
2021/05/30 00:19:33;;;;;;;7.70;2.60;;;;;;;14.67;79.17;100091.96;1706862;82;21748;-74
2021/05/30 00:22:02;;;;;;;4.37;2.20;;;;;;;14.60;78.71;100100.41;1709824;82;21882;-73
2021/05/30 00:24:29;;;;;;;4.30;2.30;;;;;;;14.56;78.54;100105.34;1708165;82;21743;-73
2021/05/30 00:26:55;;;;;;;4.70;2.30;;;;;;;14.51;78.36;100111.05;1710504;82;22339;-71
2021/05/30 00:29:22;;;;;;;4.03;2.20;;;;;;;14.47;78.25;100107.30;1708354;82;21818;-71
2021/05/30 00:31:48;;;;;;;4.63;2.40;;;;;;;14.41;78.16;100110.36;1704838;82;21831;-72
2021/05/30 00:34:15;;;;;;;4.13;2.17;;;;;;;14.41;78.16;100110.36;1717918;82;21704;-71
2021/05/30 00:36:42;;;;;;;4.97;2.20;;;;;;;14.39;78.05;100112.56;1695760;82;22295;-71
2021/05/30 00:39:08;;;;;;;3.00;2.20;;;;;;;14.37;78.12;100116.08;1709556;82;21739;-72
2021/05/30 00:41:35;;;;;;;5.80;2.60;;;;;;;14.36;78.01;100114.49;1705934;82;21796;-72
2021/05/30 00:44:25;;;;;;;4.23;2.37;;;;;;;14.33;78.13;100120.45;1710498;82;23682;-71
2021/05/30 00:46:53;;;;;;;2.90;2.20;;;;;;;14.31;78.21;100117.52;1710882;82;21621;-73
2021/05/30 00:49:19;;;;;;;5.37;2.40;;;;;;;14.31;77.79;100112.14;1700943;82;21770;-72
2021/05/30 00:51:47;;;;;;;3.43;2.20;;;;;;;14.31;77.79;100112.14;1699287;82;22352;-72
2021/05/30 00:54:15;;;;;;;3.73;2.60;;;;;;;14.29;77.56;100114.86;1710538;82;21744;-72
2021/05/30 00:56:41;;;;;;;4.50;2.67;;;;;;;14.31;77.72;100124.23;1707121;82;21829;-71
2021/05/30 00:59:09;;;;;;;4.00;2.87;;;;;;;14.31;77.72;100124.23;1706060;82;21641;-71
2021/05/30 01:01:36;;;;;;;3.90;2.90;;;;;;;14.33;77.92;100125.27;1634648;85;21841;-72
2021/05/30 01:04:03;;;;;;;4.33;2.53;;;;;;;14.33;77.92;100125.27;1715159;82;21485;-71
2021/05/30 01:06:30;;;;;;;4.53;2.30;;;;;;;14.34;77.22;100122.03;1712372;82;21775;-71
2021/05/30 01:09:01;;;;;;;3.47;2.50;;;;;;;14.34;77.22;100122.03;1709836;82;21543;-71
2021/05/30 01:11:27;;;;;;;4.33;2.40;;;;;;;14.36;76.93;100121.20;1704194;82;22271;-71
2021/05/30 01:13:58;;;;;;;4.70;2.40;;;;;;;14.35;77.00;100112.91;1712086;82;21592;-71
2021/05/30 01:16:25;;;;;;;3.17;2.40;;;;;;;14.33;76.34;100108.36;1705688;82;21608;-72
2021/05/30 01:18:56;;;;;;;3.77;2.43;;;;;;;14.33;76.34;100108.36;1699851;82;21601;-72
2021/05/30 01:21:43;;;;;;;3.87;2.20;;;;;;;14.32;76.00;100108.91;1706399;82;21627;-72
2021/05/30 01:24:10;;;;;;;4.03;2.40;;;;;;;14.32;76.00;100110.25;1681782;83;21642;-71
2021/05/30 01:26:38;;;;;;;4.43;2.60;;;;;;;14.29;75.97;100106.25;1684478;84;21774;-72
2021/05/30 01:29:05;;;;;;;4.13;2.40;;;;;;;14.29;75.87;100113.52;1687604;83;21584;-73
2021/05/30 01:31:34;;;;;;;4.23;2.60;;;;;;;14.27;76.14;100106.28;1688550;84;22361;-73
2021/05/30 01:34:00;;;;;;;4.07;2.37;;;;;;;14.25;76.40;100105.25;1681271;83;21627;-71
2021/05/30 01:36:27;;;;;;;3.23;2.27;;;;;;;14.25;76.40;100105.25;1687627;83;21736;-71
2021/05/30 01:38:55;;;;;;;5.57;2.23;;;;;;;14.21;76.13;100106.90;1692504;84;21659;-71
2021/05/30 01:41:22;;;;;;;3.40;2.40;;;;;;;14.20;75.81;100109.89;1657085;85;21577;-72
2021/05/30 01:43:49;;;;;;;4.90;2.30;;;;;;;14.20;75.81;100109.89;1649933;85;21722;-72
2021/05/30 01:46:16;;;;;;;3.90;2.40;;;;;;;14.19;75.51;100108.31;1680545;83;21823;-72
2021/05/30 01:48:43;;;;;;;3.60;2.57;;;;;;;14.19;75.51;100108.31;1656610;85;22170;-71
2021/05/30 01:51:11;;;;;;;3.80;2.30;;;;;;;14.17;75.59;100107.78;1687483;84;21681;-71
2021/05/30 01:53:48;;;;;;;6.07;2.30;;;;;;;14.16;75.57;100106.20;1641262;85;22965;-72
2021/05/30 01:58:34;;;;;;;4.40;2.70;;;;;;;14.14;75.28;100113.19;1690299;84;21628;-71
2021/05/30 02:01:01;;;;;;;5.60;2.77;;;;;;;14.14;75.28;100113.19;1682886;83;21473;-72
2021/05/30 02:03:28;;;;;;;3.83;2.77;;;;;;;14.14;75.86;100116.42;1626057;84;21682;-71
2021/05/30 02:05:55;;;;;;;4.60;3.00;;;;;;;14.15;75.47;100116.16;1622830;86;21589;-71
2021/05/30 02:08:23;;;;;;;5.27;2.70;;;;;;;14.12;75.58;100116.73;1584542;88;21751;-71
2021/05/30 02:10:51;;;;;;;4.77;2.50;;;;;;;14.09;76.14;100098.52;1656151;85;21839;-72
2021/05/30 02:13:19;;;;;;;5.40;2.80;;;;;;;14.09;76.14;100098.52;1645891;85;21862;-72
2021/05/30 02:15:46;;;;;;;5.07;2.93;;;;;;;14.10;76.18;100101.44;1606580;88;22200;-72
2021/05/30 02:18:12;;;;;;;7.63;3.37;;;;;;;14.10;76.18;100101.44;1648883;86;21802;-72
2021/05/30 02:20:41;;;;;;;4.07;2.60;;;;;;;14.09;76.24;100099.85;1652716;86;21655;-72
2021/05/30 02:23:13;;;;;;;5.13;2.87;;;;;;;14.09;76.24;100101.20;1628791;87;21616;-71
2021/05/30 02:25:41;;;;;;;4.93;2.80;;;;;;;14.09;76.49;100103.88;1622336;86;21526;-73
2021/05/30 02:28:08;;;;;;;4.07;2.57;;;;;;;14.09;76.49;100103.88;1635528;86;21942;-72
2021/05/30 02:30:34;;;;;;;4.80;2.70;;;;;;;14.13;76.71;100119.66;1685487;84;21750;-72
2021/05/30 02:33:03;;;;;;;4.67;2.70;;;;;;;14.18;76.33;100125.48;1688585;84;21846;-71
2021/05/30 02:35:30;;;;;;;5.77;3.40;;;;;;;14.18;76.33;100125.48;1675922;84;22159;-72
2021/05/30 02:37:57;;;;;;;6.43;4.93;;;;;;;14.19;76.58;100123.88;1672717;83;21554;-71
2021/05/30 02:40:24;;;;;;;7.33;4.23;;;;;;;14.20;76.51;100118.75;1628679;88;21971;-72
2021/05/30 02:42:51;;;;;;;5.63;3.20;;;;;;;14.23;76.44;100126.77;1653469;85;21716;-72
2021/05/30 02:45:18;;;;;;;4.37;3.30;;;;;;;14.20;76.38;100126.80;1622427;86;22081;-72
2021/05/30 02:47:46;;;;;;;4.83;2.90;;;;;;;14.29;76.19;100135.80;1678228;84;21771;-71
2021/05/30 02:50:12;;;;;;;4.27;3.00;;;;;;;14.29;76.19;100135.80;1683107;84;21721;-71
2021/05/30 02:52:39;;;;;;;4.73;2.60;;;;;;;14.37;75.55;100130.86;1622499;87;21854;-72
2021/05/30 02:55:08;;;;;;;4.93;2.70;;;;;;;14.37;75.55;100130.86;1624989;86;22194;-70
2021/05/30 02:57:35;;;;;;;4.23;3.03;;;;;;;14.39;75.98;100129.48;1658246;86;21775;-72
2021/05/30 03:00:06;;;;;;;3.87;2.57;;;;;;;14.41;75.56;100131.34;1642006;86;21857;-72
2021/05/30 03:02:33;;;;;;;4.97;2.67;;;;;;;14.47;75.26;100142.78;1652938;84;21801;-72
2021/05/30 03:05:00;;;;;;;4.90;2.57;;;;;;;14.47;75.26;100142.78;1626631;86;21886;-72
2021/05/30 03:07:27;;;;;;;5.60;2.53;;;;;;;14.50;75.58;100143.55;1622657;86;21855;-73
2021/05/30 03:09:54;;;;;;;3.50;2.40;;;;;;;14.53;75.43;100141.09;1680071;84;21762;-72
2021/05/30 03:12:21;;;;;;;4.63;2.40;;;;;;;14.54;75.44;100135.17;1632755;86;21819;-72
2021/05/30 03:14:47;;;;;;;4.30;2.40;;;;;;;14.61;75.36;100140.17;1628060;86;21708;-73
2021/05/30 03:17:15;;;;;;;5.27;2.63;;;;;;;14.61;75.25;100136.97;1648324;85;22267;-72
2021/05/30 03:19:42;;;;;;;4.43;2.70;;;;;;;14.62;75.22;100135.86;1605648;87;21828;-73
2021/05/30 03:22:08;;;;;;;4.77;2.50;;;;;;;14.67;75.42;100137.11;1631669;86;21744;-72
2021/05/30 03:24:36;;;;;;;3.30;2.20;;;;;;;14.69;75.50;100134.94;1640412;86;21899;-72
2021/05/30 03:27:03;;;;;;;4.37;2.30;;;;;;;14.69;75.68;100133.59;1630271;86;22037;-72
2021/05/30 03:29:30;;;;;;;2.97;2.40;;;;;;;14.69;75.84;100130.91;1643331;86;21786;-72
2021/05/30 03:31:58;;;;;;;6.40;2.60;;;;;;;14.68;76.01;100136.03;1629659;86;23045;-71
2021/05/30 03:34:24;;;;;;;5.20;2.93;;;;;;;14.66;76.14;100134.17;1683571;84;21793;-72
2021/05/30 03:36:56;;;;;;;5.53;3.10;;;;;;;14.67;76.11;100134.42;1679632;83;21776;-73
2021/05/30 03:39:25;;;;;;;4.80;3.10;;;;;;;14.71;75.94;100132.77;1632781;86;21883;-74
2021/05/30 03:41:54;;;;;;;6.17;3.17;;;;;;;14.75;75.96;100134.31;1689933;84;21828;-72
2021/05/30 03:44:20;;;;;;;4.40;2.80;;;;;;;14.81;75.77;100132.31;1632421;86;22300;-71
2021/05/30 03:46:47;;;;;;;3.50;2.63;;;;;;;14.86;75.40;100133.03;1621913;86;21780;-72
2021/05/30 03:49:13;;;;;;;4.23;2.30;;;;;;;14.93;75.26;100131.30;1619329;86;21747;-72
2021/05/30 03:51:41;;;;;;;4.90;2.30;;;;;;;14.98;74.45;100129.33;1623710;88;21769;-72
2021/05/30 03:54:08;;;;;;;4.83;2.20;;;;;;;15.06;73.76;100132.42;1617996;86;21804;-72
2021/05/30 03:56:36;;;;;;;4.07;2.30;;;;;;;15.10;73.15;100129.38;1626812;87;21084;-73
2021/05/30 03:59:02;;;;;;;3.23;2.30;;;;;;;15.14;72.58;100132.54;1686010;84;21923;-72
2021/05/30 04:01:29;;;;;;;2.97;2.10;;;;;;;15.18;72.15;100140.27;1690323;84;21882;-72
2021/05/30 04:03:56;;;;;;;3.90;2.33;;;;;;;15.28;71.37;100150.59;1679523;83;21035;-72
2021/05/30 04:06:23;;;;;;;3.63;2.20;;;;;;;15.28;71.37;100150.59;1683886;84;21070;-73
2021/05/30 04:08:51;;;;;;;3.87;2.63;;;;;;;15.31;70.96;100147.30;1683911;83;21787;-72
2021/05/30 04:11:18;;;;;;;3.87;2.30;;;;;;;15.40;70.52;100152.22;1688352;84;21840;-73
2021/05/30 04:13:45;;;;;;;6.20;2.50;;;;;;;15.40;70.52;100152.22;1653751;85;21545;-72
2021/05/30 04:16:13;;;;;;;5.53;2.40;;;;;;;15.42;70.03;100144.66;1657912;86;21023;-73
2021/05/30 04:18:40;;;;;;;3.17;2.37;;;;;;;15.41;69.84;100138.48;1633035;86;21021;-72
2021/05/30 04:21:07;;;;;;;3.47;2.60;;;;;;;15.41;69.82;100141.17;1667217;84;20986;-73
2021/05/30 04:23:34;;;;;;;3.10;2.70;;;;;;;15.42;69.80;100141.96;1655836;85;21697;-73
2021/05/30 04:26:00;;;;;;;4.53;2.73;;;;;;;15.39;69.77;100132.59;1652837;85;21148;-73
2021/05/30 04:28:27;;;;;;;6.53;2.80;;;;;;;15.41;69.62;100132.30;1647038;84;22320;-72
2021/05/30 04:30:54;;;;;;;3.93;2.40;;;;;;;15.40;69.91;100132.03;1620324;86;21570;-71
2021/05/30 04:33:22;;;;;;;3.37;2.60;;;;;;;15.39;70.02;100131.23;1656792;85;21540;-72
2021/05/30 04:35:49;;;;;;;5.57;2.87;;;;;;;15.41;70.19;100134.44;1657582;86;21313;-72
2021/05/30 04:38:18;;;;;;;4.73;2.83;;;;;;;15.42;70.08;100139.27;1652454;85;21644;-72
2021/05/30 04:40:49;;;;;;;5.20;2.90;;;;;;;15.40;70.28;100129.34;1654143;84;21094;-72
2021/05/30 04:43:16;;;;;;;5.40;3.27;;;;;;;15.37;70.47;100134.80;1656423;86;21651;-70
2021/05/30 04:45:43;;;;;;;5.13;3.00;;;;;;;15.33;70.97;100127.60;1614651;88;21084;-72
2021/05/30 04:48:10;;;;;;;4.17;2.70;;;;;;;15.32;71.13;100124.12;1620737;87;21185;-72
2021/05/30 04:50:39;;;;;;;4.10;3.00;;;;;;;15.32;71.21;100128.70;1683899;83;21038;-72
2021/05/30 04:53:06;;;;;;;5.57;3.03;;;;;;;15.32;70.95;100134.09;1675943;84;21160;-72
2021/05/30 04:55:32;;;;;;;5.43;3.90;;;;;;;15.32;70.95;100134.09;1656735;85;21030;-73
2021/05/30 04:58:00;;;;;;;4.77;3.20;;;;;;;15.30;70.65;100133.05;1647658;85;21723;-72
2021/05/30 05:00:27;;;;;;;5.90;4.20;;;;;;;15.30;70.92;100128.20;1680721;84;21706;-72
2021/05/30 05:02:54;;;;;;;4.50;3.60;;;;;;;15.37;70.23;100134.00;1683151;83;21517;-72
2021/05/30 05:05:21;;;;;;;6.33;3.50;;;;;;;15.37;70.23;100134.00;1679405;83;21094;-71
2021/05/30 05:07:47;;;;;;;4.40;3.33;;;;;;;15.48;70.28;100131.34;1684183;84;21828;-72
2021/05/30 05:10:15;;;;;;;5.40;3.80;;;;;;;15.79;68.76;100130.19;1676096;84;21528;-71
2021/05/30 05:12:42;;;;;;;9.30;2.70;;;;;;;15.79;68.76;100130.19;1685740;83;21396;-72
2021/05/30 05:15:10;;;;;;;4.70;2.27;;;;;;;15.96;67.83;100137.66;1679060;84;21227;-72
2021/05/30 05:17:37;;;;;;;3.87;2.10;;;;;;;16.08;67.24;100133.87;1683904;84;21141;-71
2021/05/30 05:20:06;;;;;;;4.40;2.10;;;;;;;16.24;66.35;100135.67;1652568;85;21065;-72
2021/05/30 05:22:34;;;;;;;2.97;2.10;;;;;;;16.37;65.71;100134.03;1619958;88;21033;-72
2021/05/30 05:25:03;;;;;;;3.90;2.20;;;;;;;16.51;65.11;100124.53;1649738;85;21212;-72
2021/05/30 05:27:30;;;;;;;5.07;2.17;;;;;;;16.50;64.58;100128.34;1635485;84;21667;-73
2021/05/30 05:29:57;;;;;;;4.47;2.30;;;;;;;16.56;64.76;100128.46;1654284;85;21098;-71
2021/05/30 05:32:24;;;;;;;3.07;2.10;;;;;;;16.63;64.68;100129.61;1654089;85;21022;-71
2021/05/30 05:34:51;;;;;;;2.87;2.40;;;;;;;16.69;64.20;100119.50;1638542;86;21214;-73
2021/05/30 05:37:18;;;;;;;4.83;2.47;;;;;;;16.73;63.93;100121.82;1655637;85;21441;-73
2021/05/30 05:39:47;;;;;;;3.47;2.33;;;;;;;16.73;63.10;100119.68;1650603;85;21096;-73
2021/05/30 05:42:14;;;;;;;2.80;2.00;;;;;;;16.74;63.10;100125.31;1682338;84;21073;-73
2021/05/30 05:44:40;;;;;;;2.70;1.97;;;;;;;16.75;62.62;100122.34;1623574;86;21151;-73
2021/05/30 05:47:08;;;;;;;3.60;2.13;;;;;;;16.78;62.65;100124.43;1651497;86;21077;-72
2021/05/30 05:49:34;;;;;;;3.73;2.10;;;;;;;16.77;62.06;100126.07;1623011;86;21156;-73
2021/05/30 05:52:02;;;;;;;4.57;2.40;;;;;;;16.74;62.28;100126.66;1618954;86;20998;-71
2021/05/30 05:54:29;;;;;;;4.13;2.43;;;;;;;16.70;62.08;100125.69;1623494;87;21214;-73
2021/05/30 05:56:56;;;;;;;2.53;1.90;;;;;;;16.71;62.50;100134.02;1688435;84;21074;-73
2021/05/30 05:59:23;;;;;;;3.10;1.80;;;;;;;16.77;61.99;100127.42;1649830;85;21113;-72
2021/05/30 06:01:49;;;;;;;3.20;1.87;;;;;;;16.83;61.07;100131.03;1654888;86;21713;-73
2021/05/30 06:04:16;;;;;;;2.17;1.70;;;;;;;16.86;60.14;100124.22;1676677;84;21771;-75
2021/05/30 06:06:43;;;;;;;2.70;1.87;;;;;;;16.90;59.74;100125.19;1675396;84;21096;-72
2021/05/30 06:09:09;;;;;;;3.73;1.57;;;;;;;16.96;59.51;100117.77;1622744;86;21205;-73
2021/05/30 06:11:36;;;;;;;3.23;1.70;;;;;;;17.01;59.56;100114.39;1652955;85;21200;-72
2021/05/30 06:14:03;;;;;;;2.30;1.73;;;;;;;17.05;59.88;100118.05;1657716;85;21121;-74
2021/05/30 06:16:30;;;;;;;2.60;2.00;;;;;;;17.11;59.89;100118.16;1628215;87;21068;-73
2021/05/30 06:18:58;;;;;;;3.60;2.10;;;;;;;17.18;59.80;100119.06;1680330;83;21088;-71
2021/05/30 06:21:26;;;;;;;4.50;1.97;;;;;;;17.22;59.59;100127.33;1681160;84;21114;-73
2021/05/30 06:23:54;;;;;;;4.47;2.10;;;;;;;17.24;59.93;100130.50;1680455;84;21138;-73
2021/05/30 06:26:21;;;;;;;3.77;1.87;;;;;;;17.27;59.48;100138.77;1602092;87;21153;-73
2021/05/30 06:28:47;;;;;;;3.07;1.93;;;;;;;17.26;59.16;100147.19;1684008;84;21163;-72
2021/05/30 06:31:14;;;;;;;3.03;1.70;;;;;;;17.24;59.30;100142.64;1673997;83;21663;-74
2021/05/30 06:33:40;;;;;;;3.27;2.10;;;;;;;17.24;59.13;100135.89;1654506;86;21277;-73
2021/05/30 06:36:07;;;;;;;4.37;1.93;;;;;;;17.24;59.43;100145.34;1664054;85;21699;-72
2021/05/30 06:38:35;;;;;;;3.40;2.10;;;;;;;17.31;59.94;100140.31;1624794;87;21490;-73
2021/05/30 06:41:03;;;;;;;3.83;2.10;;;;;;;17.39;59.82;100158.99;1648102;85;21127;-72
2021/05/30 06:43:31;;;;;;;2.30;1.60;;;;;;;17.44;58.94;100145.33;1630495;86;21106;-72
2021/05/30 06:45:58;;;;;;;3.23;1.77;;;;;;;17.50;59.17;100138.13;1652777;86;21136;-72
2021/05/30 06:48:24;;;;;;;2.87;1.67;;;;;;;17.60;59.50;100141.09;1684958;84;21141;-72
2021/05/30 06:53:37;;;;;;;3.70;1.80;;;;;;;17.73;58.04;100148.83;1624671;87;21105;-72
2021/05/30 06:56:05;;;;;;;2.80;2.10;;;;;;;17.74;58.16;100145.83;1685586;84;21098;-72
2021/05/30 06:58:31;;;;;;;4.90;2.10;;;;;;;17.87;58.14;100160.36;1627689;87;21692;-71
2021/05/30 07:00:58;;;;;;;2.67;2.00;;;;;;;17.98;57.69;100156.78;1620897;86;21154;-72
2021/05/30 07:03:26;;;;;;;4.77;1.90;;;;;;;18.09;57.36;100159.41;1636503;86;21133;-72
2021/05/30 07:05:52;;;;;;;2.57;1.90;;;;;;;18.17;57.34;100159.98;1656754;86;21073;-71
2021/05/30 07:08:20;;;;;;;2.50;2.03;;;;;;;18.23;56.71;100161.98;1629124;86;21575;-73
2021/05/30 07:10:47;;;;;;;5.13;2.23;;;;;;;18.13;56.66;100160.92;1625841;87;21084;-72
2021/05/30 07:13:15;;;;;;;3.23;2.20;;;;;;;18.01;57.40;100167.76;1656371;85;21123;-72
2021/05/30 07:15:42;;;;;;;4.63;2.30;;;;;;;17.91;57.72;100177.52;1615715;87;21095;-72
2021/05/30 07:18:09;;;;;;;3.90;2.47;;;;;;;17.84;58.24;100171.79;1629819;87;21155;-72
2021/05/30 07:20:42;;;;;;;3.13;2.43;;;;;;;17.84;59.16;100182.59;1637740;86;21041;-71
2021/05/30 07:23:06;;;;;;;3.40;2.63;;;;;;;17.88;58.42;100176.80;1686273;84;21079;-72
2021/05/30 07:25:33;;;;;;;3.50;2.20;;;;;;;17.84;58.37;100181.25;1683513;83;21098;-71
2021/05/30 07:28:00;;;;;;;4.67;2.20;;;;;;;17.83;58.72;100182.34;1688466;84;21079;-73
2021/05/30 07:30:27;;;;;;;2.97;2.40;;;;;;;17.87;58.98;100190.08;1683973;84;21125;-73
2021/05/30 07:32:54;;;;;;;3.00;2.30;;;;;;;17.87;58.82;100181.97;1685926;84;21026;-73
2021/05/30 07:35:21;;;;;;;3.93;2.30;;;;;;;17.86;59.06;100182.27;1653836;85;21667;-72
2021/05/30 07:37:49;;;;;;;3.97;2.40;;;;;;;17.91;59.23;100186.97;1625928;88;21095;-71
2021/05/30 07:40:17;;;;;;;3.87;2.60;;;;;;;18.00;58.98;100189.14;1627983;86;21138;-73
2021/05/30 07:42:46;;;;;;;3.47;2.00;;;;;;;18.07;58.96;100187.89;1650728;86;21138;-71
2021/05/30 07:45:14;;;;;;;4.20;2.30;;;;;;;18.13;58.42;100193.35;1642132;85;21144;-71
2021/05/30 07:47:42;;;;;;;4.00;2.20;;;;;;;18.16;57.55;100203.53;1620548;86;21542;-72
2021/05/30 07:50:09;;;;;;;4.30;2.50;;;;;;;18.18;57.28;100195.92;1632095;86;21671;-72
2021/05/30 07:52:36;;;;;;;4.90;2.40;;;;;;;18.24;57.45;100197.36;1655238;85;21150;-71
2021/05/30 07:55:05;;;;;;;3.20;2.07;;;;;;;18.33;57.37;100189.23;1628133;87;21862;-72
2021/05/30 07:57:32;;;;;;;3.50;2.10;;;;;;;18.41;57.17;100189.25;1628774;86;21191;-71
2021/05/30 07:59:58;;;;;;;3.50;2.03;;;;;;;18.42;56.58;100187.33;1627931;87;21099;-71
2021/05/30 08:02:25;;;;;;;4.23;3.00;;;;;;;18.41;56.89;100189.25;1679812;84;21054;-71
2021/05/30 08:04:54;;;;;;;3.40;2.30;;;;;;;18.43;56.45;100187.59;1685511;83;22445;-71
2021/05/30 08:07:23;;;;;;;4.67;2.30;;;;;;;18.46;55.70;100186.95;1672124;84;21681;-72
2021/05/30 08:09:50;;;;;;;3.73;1.87;;;;;;;18.47;55.00;100188.54;1681750;83;21132;-72
2021/05/30 08:12:16;;;;;;;2.37;1.47;;;;;;;18.47;54.57;100183.13;1674839;83;21065;-72
2021/05/30 08:14:44;;;;;;;1.87;1.43;;;;;;;18.53;54.85;100192.68;1684983;84;21639;-72
2021/05/30 08:17:11;;;;;;;1.67;1.30;;;;;;;18.50;54.05;100188.70;1682676;83;21355;-72
2021/05/30 08:19:37;;;;;;;3.27;2.27;;;;;;;18.44;54.46;100188.61;1684911;84;21609;-71
2021/05/30 08:22:05;;;;;;;2.23;1.20;;;;;;;18.49;54.66;100193.88;1682619;83;21166;-71
2021/05/30 08:24:32;;;;;;;2.73;1.27;;;;;;;18.58;54.00;100190.36;1688444;84;21156;-72
2021/05/30 08:26:59;;;;;;;1.80;1.40;;;;;;;18.61;53.81;100184.31;1685812;84;21091;-71
2021/05/30 08:29:26;;;;;;;2.47;1.40;;;;;;;18.67;54.22;100190.59;1662522;84;21177;-72
2021/05/30 08:31:53;;;;;;;3.53;1.30;;;;;;;18.79;53.29;100188.63;1649689;86;21105;-72
2021/05/30 08:34:20;;;;;;;6.40;1.50;;;;;;;18.79;53.58;100185.92;1639906;86;21112;-73
2021/05/30 08:36:47;;;;;;;1.40;1.10;;;;;;;18.83;52.85;100188.78;1650055;85;21077;-71
2021/05/30 08:39:14;;;;;;;2.07;1.30;;;;;;;18.78;52.32;100191.08;1657784;84;21659;-72
2021/05/30 08:41:42;;;;;;;3.07;1.40;;;;;;;18.69;53.01;100188.91;1659421;84;21146;-73
2021/05/30 08:44:09;;;;;;;3.30;1.20;;;;;;;18.70;52.95;100184.54;1647848;86;21587;-72
2021/05/30 08:46:36;;;;;;;2.80;1.27;;;;;;;18.74;53.40;100173.90;1610644;86;21117;-70
2021/05/30 08:49:05;;;;;;;2.73;1.30;;;;;;;18.77;53.67;100186.79;1649306;85;21147;-73
2021/05/30 08:51:36;;;;;;;3.50;1.50;;;;;;;18.70;53.65;100194.01;1664118;83;21129;-72
2021/05/30 08:54:17;;;;;;;2.35;1.50;;;;;;;18.64;53.73;100195.84;1626642;86;21092;-71
2021/05/30 08:56:44;;;;;;;2.00;1.47;;;;;;;18.66;54.09;100205.23;1629768;88;21132;-71
2021/05/30 08:59:33;;;;;;;2.77;1.40;;;;;;;18.73;54.28;100206.14;1687988;84;21597;-71
2021/05/30 09:02:13;;;;;;;2.20;1.50;;;;;;;18.81;54.60;100197.20;1678667;84;21114;-72
2021/05/30 09:04:43;;;;;;;3.53;1.43;;;;;;;18.87;54.81;100204.04;1680167;83;21217;-72
2021/05/30 09:07:10;;;;;;;3.27;1.30;;;;;;;18.81;53.30;100208.02;1687588;84;21663;-72
2021/05/30 09:09:45;;;;;;;2.53;1.60;;;;;;;18.61;53.96;100215.42;1686549;84;21343;-72
2021/05/30 09:12:34;;;;;;;2.97;1.70;;;;;;;18.48;55.28;100216.60;1625777;86;21555;-72
2021/05/30 09:14:58;;;;;;;2.90;1.90;;;;;;;18.41;55.98;100223.05;1615882;87;21126;-72
2021/05/30 09:17:26;;;;;;;3.93;2.10;;;;;;;18.34;56.70;100230.05;1626884;88;21099;-72
2021/05/30 09:19:55;;;;;;;2.80;1.80;;;;;;;18.29;57.12;100235.04;1606498;86;21183;-71
2021/05/30 09:22:32;;;;;;;2.37;1.80;;;;;;;18.27;57.29;100234.58;1648862;85;21141;-71
2021/05/30 09:25:11;;;;;;;2.57;1.57;;;;;;;18.20;57.31;100236.95;1615848;87;21095;-72
2021/05/30 09:27:59;;;;;;;4.50;2.67;;;;;;;18.10;57.99;100231.82;1610836;88;21671;-72
2021/05/30 09:30:42;;;;;;;2.97;2.10;;;;;;;18.18;58.18;100237.25;1615924;87;21638;-72
2021/05/30 09:33:12;;;;;;;3.30;1.80;;;;;;;18.26;58.05;100246.48;1629045;86;21811;-71
2021/05/30 09:35:51;;;;;;;2.90;1.90;;;;;;;18.35;58.42;100244.59;1653417;86;21006;-72
2021/05/30 09:38:32;;;;;;;3.57;1.83;;;;;;;18.55;57.97;100250.50;1620831;87;21094;-71
2021/05/30 09:41:06;;;;;;;3.52;2.17;;;;;;;18.65;56.85;100247.47;1618525;88;21168;-71
2021/05/30 09:43:49;;;;;;;2.70;2.00;;;;;;;18.56;56.81;100252.90;1629197;86;21081;-72
2021/05/30 09:46:19;;;;;;;3.17;2.07;;;;;;;18.50;57.35;100256.31;1626635;86;21319;-71
2021/05/30 09:48:56;;;;;;;3.77;2.43;;;;;;;18.58;57.42;100253.36;1613716;87;21201;-73
2021/05/30 09:51:34;;;;;;;3.27;2.23;;;;;;;18.51;56.91;100257.89;1630867;88;21109;-72
2021/05/30 09:54:07;;;;;;;3.80;2.33;;;;;;;18.38;57.66;100254.78;1621535;86;21123;-71
2021/05/30 09:56:47;;;;;;;3.47;2.40;;;;;;;18.35;57.57;100258.11;1620069;88;21615;-73
2021/05/30 09:59:17;;;;;;;3.93;2.73;;;;;;;18.39;57.78;100260.98;1642518;86;21802;-71
2021/05/30 10:01:59;;;;;;;3.35;2.52;;;;;;;18.51;58.02;100259.24;1671311;85;21129;-72
2021/05/30 10:04:35;;;;;;;3.52;2.17;;;;;;;18.51;57.40;100261.16;1648291;85;28471;-71
2021/05/30 10:07:05;;;;;;;3.20;2.40;;;;;;;18.45;56.92;100258.36;1628004;87;21099;-71
2021/05/30 10:09:34;;;;;;;3.80;2.50;;;;;;;18.27;56.87;100248.09;1656719;85;21114;-72
2021/05/30 10:12:00;;;;;;;3.87;2.70;;;;;;;18.17;57.26;100260.56;1654250;86;21085;-73
2021/05/30 10:14:29;;;;;;;3.00;2.47;;;;;;;18.19;57.46;100259.67;1648075;85;21062;-71
2021/05/30 10:16:56;;;;;;;4.13;2.53;;;;;;;18.34;57.97;100259.80;1655006;84;21005;-70
2021/05/30 10:19:31;;;;;;;4.07;2.57;;;;;;;18.50;57.38;100257.66;1654078;84;21003;-73
2021/05/30 10:21:59;;;;;;;3.43;2.27;;;;;;;18.61;56.04;100252.73;1642843;86;21211;-73
2021/05/30 10:24:26;;;;;;;3.33;2.50;;;;;;;18.50;55.76;100271.18;1629204;86;21329;-72
2021/05/30 10:27:12;;;;;;;3.53;2.23;;;;;;;18.45;55.86;100261.86;1652487;85;21118;-71
2021/05/30 10:29:38;;;;;;;4.33;2.33;;;;;;;18.38;56.61;100255.34;1656564;85;21507;-71
2021/05/30 10:32:17;;;;;;;2.80;2.23;;;;;;;18.33;56.84;100270.34;1632575;86;21211;-72
2021/05/30 10:35:25;;;;;;;4.40;2.40;;;;;;;18.17;57.31;100264.61;1682793;84;21118;-72
2021/05/30 10:37:56;;;;;;;3.87;2.97;;;;;;;17.98;57.36;100268.38;1592385;89;21123;-71
2021/05/30 10:40:28;;;;;;;5.65;3.05;;;;;;;17.77;57.51;100275.46;1646450;86;22229;-72
2021/05/30 10:43:13;;;;;;;4.33;2.92;;;;;;;17.73;58.03;100276.58;1633907;86;21064;-71
2021/05/30 10:45:53;;;;;;;4.33;2.80;;;;;;;17.90;58.11;100279.14;1646283;86;21153;-71
2021/05/30 10:48:21;;;;;;;3.40;2.23;;;;;;;18.10;58.28;100276.42;1645252;84;21090;-71
2021/05/30 10:50:55;;;;;;;5.67;2.17;;;;;;;18.11;57.20;100273.42;1639465;86;21138;-71
2021/05/30 10:53:32;;;;;;;4.77;2.40;;;;;;;18.06;58.11;100287.06;1685939;84;21162;-72
2021/05/30 10:56:30;;;;;;;5.13;2.20;;;;;;;18.09;58.43;100282.38;1629389;88;21013;-72
2021/05/30 10:59:14;;;;;;;4.50;2.80;;;;;;;18.22;58.55;100280.67;1633265;86;21186;-71
2021/05/30 11:01:44;;;;;;;4.10;2.60;;;;;;;18.14;57.88;100282.81;1658531;84;21706;-70
2021/05/30 11:04:28;;;;;;;4.33;2.67;;;;;;;17.92;58.11;100292.59;1653532;85;21538;-72
2021/05/30 11:07:09;;;;;;;4.77;2.47;;;;;;;17.65;58.63;100291.41;1628953;86;21066;-71
2021/05/30 11:09:58;;;;;;;6.27;2.90;;;;;;;17.27;59.33;100303.97;1685753;84;21098;-70
2021/05/30 11:12:33;;;;;;;4.70;3.07;;;;;;;17.02;60.37;100309.45;1683430;84;21718;-72
2021/05/30 11:15:20;;;;;;;5.23;3.10;;;;;;;16.77;61.66;100312.96;1650495;85;21140;-73
2021/05/30 11:17:55;;;;;;;4.67;3.07;;;;;;;16.53;62.42;100315.89;1644254;86;21113;-73
2021/05/30 11:20:30;;;;;;;5.13;3.40;;;;;;;16.31;62.96;100313.12;1657100;85;20994;-72
2021/05/30 11:23:02;;;;;;;5.00;3.30;;;;;;;16.11;63.62;100325.91;1681531;84;21175;-72
2021/05/30 11:25:37;;;;;;;7.33;3.67;;;;;;;15.99;64.29;100334.22;1687076;83;21082;-74
2021/05/30 11:28:10;;;;;;;5.27;3.20;;;;;;;15.88;64.87;100337.11;1632797;86;21033;-73
2021/05/30 11:30:54;;;;;;;4.80;3.33;;;;;;;15.80;65.39;100339.71;1654249;85;21524;-73
2021/05/30 11:33:27;;;;;;;7.20;3.73;;;;;;;15.71;65.68;100345.77;1649477;85;21169;-73
2021/05/30 11:36:00;;;;;;;5.75;3.67;;;;;;;15.67;65.83;100343.97;1649662;86;21058;-74
2021/05/30 11:38:52;;;;;;;5.27;2.80;;;;;;;15.66;65.73;100345.87;1392582;86;10000418;-73
2021/05/30 11:41:32;;;;;;;4.63;3.30;;;;;;;15.65;65.53;100341.53;1624604;86;21155;-73